Time;durP1;ratioP1;P1;durP2;ratioP2;P2;SDS_P1;SDS_P2;PMS_P1;PMS_P2;Temp;Humidity;BMP_temperature;BMP_pressure;BME280_temperature;BME280_humidity;BME280_pressure;Samples;Min_cycle;Max_cycle;Signal;HPM_P1;HPM_P2
2023/06/17 00:00:09;;;;;;;77.40;10.17;;;21.00;1.00;;;;;;5057433;28;20168;-82
2023/06/17 00:02:35;;;;;;;75.77;10.63;;;21.00;1.00;;;;;;5075844;28;20785;-82
2023/06/17 00:05:02;;;;;;;77.37;11.47;;;21.00;1.00;;;;;;5075696;28;20440;-82
2023/06/17 00:07:28;;;;;;;75.20;10.90;;;21.00;1.00;;;;;;5075271;28;20650;-82
2023/06/17 00:09:54;;;;;;;73.77;11.23;;;20.90;1.00;;;;;;5075301;28;20537;-82
2023/06/17 00:12:21;;;;;;;74.67;12.00;;;20.90;1.00;;;;;;5075772;28;20421;-81
2023/06/17 00:14:47;;;;;;;73.73;11.67;;;20.80;1.00;;;;;;5041447;28;20192;-82
2023/06/17 00:17:14;;;;;;;73.27;12.87;;;20.90;1.00;;;;;;5057856;28;20434;-82
2023/06/17 00:19:40;;;;;;;74.87;14.30;;;20.80;1.00;;;;;;5074978;28;20595;-82
2023/06/17 00:22:08;;;;;;;73.97;13.00;;;20.70;1.00;;;;;;5074894;28;20433;-82
2023/06/17 00:24:34;;;;;;;75.53;13.30;;;20.70;1.00;;;;;;5075232;28;20394;-81
2023/06/17 00:27:00;;;;;;;73.30;12.40;;;20.70;1.00;;;;;;5078991;28;20414;-82
2023/06/17 00:29:26;;;;;;;75.10;15.57;;;20.70;1.00;;;;;;5078308;28;20908;-81
2023/06/17 00:31:51;;;;;;;78.13;16.57;;;20.70;1.00;;;;;;5060273;28;20191;-82
2023/06/17 00:34:17;;;;;;;75.97;14.10;;;20.60;1.00;;;;;;5078207;28;20167;-82
2023/06/17 00:36:43;;;;;;;77.57;16.40;;;20.50;1.00;;;;;;5078243;28;20219;-82
2023/06/17 00:39:08;;;;;;;77.60;16.43;;;20.50;1.00;;;;;;5059962;28;20191;-82
2023/06/17 00:41:34;;;;;;;78.67;17.87;;;20.50;1.00;;;;;;5060131;28;20168;-81
2023/06/17 00:44:00;;;;;;;79.37;18.47;;;20.50;1.00;;;;;;5060309;28;20160;-81
2023/06/17 00:46:50;;;;;;;79.00;16.50;;;20.40;1.00;;;;;;5077903;28;20178;-81
2023/06/17 00:49:16;;;;;;;77.37;17.60;;;20.40;1.00;;;;;;5059722;28;20436;-81
2023/06/17 00:51:41;;;;;;;76.00;16.13;;;20.30;1.00;;;;;;5059842;28;20820;-81
2023/06/17 00:54:08;;;;;;;77.00;16.00;;;20.30;1.00;;;;;;5077910;28;20451;-81
2023/06/17 00:56:37;;;;;;;76.67;16.80;;;20.20;1.00;;;;;;5059547;28;20173;-82
2023/06/17 00:59:04;;;;;;;77.07;15.93;;;20.20;1.00;;;;;;5077716;28;20446;-82
2023/06/17 01:01:29;;;;;;;73.67;13.90;;;20.20;1.00;;;;;;5077873;28;20398;-81
2023/06/17 01:03:59;;;;;;;73.60;13.60;;;20.20;1.00;;;;;;5078221;28;20459;-81
2023/06/17 01:06:40;;;;;;;75.70;14.53;;;20.20;1.00;;;;;;5077231;28;20673;-82
2023/06/17 01:09:11;;;;;;;76.03;14.13;;;20.10;1.00;;;;;;5059731;28;20477;-82
2023/06/17 01:11:39;;;;;;;76.10;14.17;;;20.10;1.00;;;;;;5077374;28;20407;-81
2023/06/17 01:14:08;;;;;;;74.37;15.80;;;20.10;1.00;;;;;;5077911;28;20500;-82
2023/06/17 01:16:40;;;;;;;76.90;13.33;;;20.00;1.00;;;;;;5077377;28;20449;-83
2023/06/17 01:19:18;;;;;;;74.47;13.60;;;20.00;1.00;;;;;;5060835;28;20539;-82
2023/06/17 01:21:48;;;;;;;76.77;13.80;;;19.90;1.00;;;;;;5079264;28;20375;-82
2023/06/17 01:24:29;;;;;;;75.77;15.23;;;19.90;1.00;;;;;;5079261;28;20403;-82
2023/06/17 01:26:57;;;;;;;78.10;14.27;;;19.90;1.00;;;;;;5079184;28;20819;-82
2023/06/17 01:29:23;;;;;;;73.60;12.30;;;19.90;1.00;;;;;;5079020;28;20430;-82
2023/06/17 01:31:56;;;;;;;75.83;13.40;;;19.90;1.00;;;;;;5079214;28;20410;-82
2023/06/17 01:34:53;;;;;;;74.93;13.33;;;19.80;1.00;;;;;;5061220;28;20421;-82
2023/06/17 01:37:49;;;;;;;74.67;12.87;;;19.80;1.00;;;;;;5043307;28;20943;-82
2023/06/17 01:40:19;;;;;;;72.20;12.00;;;19.80;1.00;;;;;;5076988;28;20451;-82
2023/06/17 01:42:48;;;;;;;72.80;12.83;;;19.70;1.00;;;;;;5060617;28;20453;-82
2023/06/17 01:45:14;;;;;;;75.87;14.47;;;19.70;1.00;;;;;;5061041;28;20410;-82
2023/06/17 01:47:41;;;;;;;75.50;11.87;;;19.60;1.00;;;;;;5060518;28;20821;-83
2023/06/17 01:50:07;;;;;;;73.17;11.80;;;19.60;1.00;;;;;;5060573;28;21033;-81
2023/06/17 01:52:33;;;;;;;72.10;11.87;;;19.60;1.00;;;;;;5060421;28;20802;-82
2023/06/17 01:54:59;;;;;;;72.87;10.97;;;19.60;1.00;;;;;;5078919;28;20566;-82
2023/06/17 01:57:26;;;;;;;74.53;12.70;;;19.50;1.00;;;;;;5060924;28;20434;-82
2023/06/17 01:59:53;;;;;;;72.60;11.37;;;19.50;1.00;;;;;;5060635;28;20459;-83
2023/06/17 02:02:19;;;;;;;72.97;11.40;;;19.50;1.00;;;;;;5079016;28;20399;-82
2023/06/17 02:04:47;;;;;;;77.17;13.17;;;19.50;1.00;;;;;;5078197;28;20398;-82
2023/06/17 02:07:17;;;;;;;74.00;11.43;;;19.40;1.00;;;;;;5078446;28;20547;-82
2023/06/17 02:09:43;;;;;;;77.90;11.50;;;19.30;1.00;;;;;;5078311;28;20746;-82
2023/06/17 02:12:09;;;;;;;73.60;10.70;;;19.30;1.00;;;;;;5078545;28;20772;-82
2023/06/17 02:14:35;;;;;;;75.80;13.13;;;19.30;1.00;;;;;;5078724;28;20457;-82
2023/06/17 02:17:00;;;;;;;75.97;10.87;;;19.30;1.00;;;;;;5078058;28;20184;-82
2023/06/17 02:19:28;;;;;;;74.73;11.00;;;19.30;1.00;;;;;;5060057;28;20292;-82
2023/06/17 02:21:55;;;;;;;74.43;11.07;;;19.20;1.00;;;;;;5077809;28;20495;-82
2023/06/17 02:24:21;;;;;;;75.00;10.73;;;19.10;1.00;;;;;;5060220;28;20464;-82
2023/06/17 02:26:49;;;;;;;72.37;10.50;;;19.10;1.00;;;;;;5059827;28;20436;-81
2023/06/17 02:29:15;;;;;;;72.47;11.57;;;19.10;1.00;;;;;;5078011;28;20437;-82
2023/06/17 02:31:41;;;;;;;72.60;10.60;;;19.10;1.00;;;;;;5060086;28;20470;-82
2023/06/17 02:34:09;;;;;;;74.30;9.10;;;19.00;1.00;;;;;;5060072;28;20410;-82
2023/06/17 02:36:38;;;;;;;72.80;9.90;;;19.00;1.00;;;;;;5060639;28;20172;-83
2023/06/17 02:39:05;;;;;;;78.70;10.03;;;19.00;1.00;;;;;;5078306;28;20441;-83
2023/06/17 02:41:31;;;;;;;73.27;9.07;;;19.00;1.00;;;;;;5059485;28;20556;-82
2023/06/17 02:43:57;;;;;;;77.97;10.13;;;19.00;1.00;;;;;;5078600;28;20411;-83
2023/06/17 02:46:27;;;;;;;73.07;9.70;;;18.90;1.00;;;;;;5077835;28;20905;-82
2023/06/17 02:48:54;;;;;;;72.77;9.70;;;18.90;1.00;;;;;;5076741;28;20414;-82
2023/06/17 02:51:20;;;;;;;73.87;10.07;;;18.80;1.00;;;;;;5060080;28;20399;-82
2023/06/17 02:53:46;;;;;;;73.60;9.60;;;18.80;1.00;;;;;;5077617;28;20758;-82
2023/06/17 02:56:11;;;;;;;73.63;10.57;;;18.80;1.00;;;;;;5077957;28;20702;-82
2023/06/17 02:58:37;;;;;;;71.53;8.50;;;18.70;1.00;;;;;;5077537;28;20195;-82
2023/06/17 03:01:05;;;;;;;72.17;7.73;;;18.70;1.00;;;;;;5077722;28;20255;-83
2023/06/17 03:03:35;;;;;;;74.73;8.63;;;18.60;1.00;;;;;;5077465;28;20164;-82
2023/06/17 03:06:03;;;;;;;70.63;8.40;;;18.70;1.00;;;;;;5060082;28;20913;-82
2023/06/17 03:08:36;;;;;;;73.43;8.60;;;18.70;1.00;;;;;;5077499;28;20502;-82
2023/06/17 03:11:02;;;;;;;72.33;8.90;;;18.70;1.00;;;;;;5077909;28;20390;-82
2023/06/17 03:13:28;;;;;;;75.90;8.70;;;18.70;1.00;;;;;;5077925;28;20398;-82
2023/06/17 03:15:55;;;;;;;72.70;9.47;;;18.60;1.00;;;;;;5077827;28;20412;-82
2023/06/17 03:18:24;;;;;;;74.30;9.57;;;18.60;1.00;;;;;;5077604;28;20422;-82
2023/06/17 03:20:53;;;;;;;74.00;8.73;;;18.60;1.00;;;;;;5077680;28;20464;-82
2023/06/17 03:23:20;;;;;;;72.30;9.30;;;18.60;1.00;;;;;;5077662;28;20404;-82
2023/06/17 03:25:48;;;;;;;72.90;8.63;;;18.50;1.00;;;;;;5058911;28;20402;-82
2023/06/17 03:28:14;;;;;;;76.80;9.10;;;18.50;1.00;;;;;;5077344;28;20427;-82
2023/06/17 03:30:40;;;;;;;73.33;8.93;;;18.60;1.00;;;;;;5077789;28;20920;-82
2023/06/17 03:33:06;;;;;;;72.83;8.40;;;18.60;1.00;;;;;;5059099;28;20410;-82
2023/06/17 03:35:33;;;;;;;73.00;8.13;;;18.50;1.00;;;;;;5058588;28;20410;-82
2023/06/17 03:37:59;;;;;;;72.97;8.07;;;18.60;1.00;;;;;;5077175;28;20426;-82
2023/06/17 03:40:24;;;;;;;72.00;8.27;;;18.50;1.00;;;;;;5078000;28;20500;-82
2023/06/17 03:42:50;;;;;;;73.50;8.90;;;18.50;1.00;;;;;;5059108;28;20171;-82
2023/06/17 03:45:16;;;;;;;71.40;8.50;;;18.40;1.00;;;;;;5058979;28;20527;-82
2023/06/17 03:47:42;;;;;;;73.00;8.63;;;18.40;1.00;;;;;;5058483;28;20203;-83
2023/06/17 03:50:08;;;;;;;72.60;8.77;;;18.40;1.00;;;;;;5077316;28;20902;-82
2023/06/17 03:52:42;;;;;;;73.77;8.30;;;18.40;1.00;;;;;;5076816;28;20168;-82
2023/06/17 03:55:08;;;;;;;72.60;8.53;;;18.40;1.00;;;;;;5059314;28;20410;-82
2023/06/17 03:57:34;;;;;;;74.63;8.63;;;18.40;1.00;;;;;;5077191;28;20449;-82
2023/06/17 04:00:00;;;;;;;74.30;8.13;;;18.40;1.00;;;;;;5061827;28;20454;-82
2023/06/17 04:02:25;;;;;;;75.23;8.57;;;18.40;1.00;;;;;;5125534;23;20220;-84
2023/06/17 04:04:52;;;;;;;73.57;8.17;;;18.40;1.00;;;;;;5069351;28;20161;-84
2023/06/17 04:07:19;;;;;;;75.73;9.00;;;18.40;1.00;;;;;;5050893;28;20180;-84
2023/06/17 04:09:45;;;;;;;72.97;8.40;;;18.30;1.00;;;;;;5051180;28;20964;-84
2023/06/17 04:12:11;;;;;;;75.13;8.60;;;18.30;1.00;;;;;;5069189;28;20402;-84
2023/06/17 04:14:37;;;;;;;76.23;9.40;;;18.20;1.00;;;;;;5068056;28;20399;-84
2023/06/17 04:17:03;;;;;;;72.60;9.80;;;18.20;1.00;;;;;;5068806;28;20482;-85
2023/06/17 04:19:31;;;;;;;75.33;10.40;;;18.30;1.00;;;;;;5068598;28;20191;-84
2023/06/17 04:21:57;;;;;;;73.60;10.50;;;18.30;1.00;;;;;;5069020;28;20963;-84
2023/06/17 04:24:23;;;;;;;74.33;10.17;;;18.30;1.00;;;;;;5067974;28;20434;-84
2023/06/17 04:26:52;;;;;;;71.40;9.77;;;18.30;1.00;;;;;;5067374;28;20172;-84
2023/06/17 04:29:21;;;;;;;80.17;11.53;;;18.30;1.00;;;;;;5049734;28;20476;-84
2023/06/17 04:31:47;;;;;;;75.30;9.87;;;18.30;1.00;;;;;;5066499;28;20471;-84
2023/06/17 04:34:21;;;;;;;77.20;9.23;;;18.50;1.00;;;;;;5048089;28;20783;-84
2023/06/17 04:36:49;;;;;;;73.37;8.73;;;18.80;1.00;;;;;;5060837;28;20445;-84
2023/06/17 04:39:16;;;;;;;72.13;8.03;;;19.10;1.00;;;;;;5042104;28;20450;-84
2023/06/17 04:41:45;;;;;;;73.20;8.03;;;19.40;1.00;;;;;;5060044;28;20466;-83
2023/06/17 04:44:13;;;;;;;72.50;8.50;;;19.60;1.00;;;;;;5041163;28;20409;-83
2023/06/17 04:46:38;;;;;;;75.30;8.87;;;19.80;1.00;;;;;;5058432;28;20410;-83
2023/06/17 04:49:04;;;;;;;75.93;8.83;;;20.00;1.00;;;;;;5058804;28;20410;-83
2023/06/17 04:51:30;;;;;;;72.00;8.23;;;20.20;1.00;;;;;;5058211;28;20245;-83
2023/06/17 04:53:56;;;;;;;75.33;8.87;;;20.40;1.00;;;;;;5057909;28;20157;-83
2023/06/17 04:56:26;;;;;;;71.60;9.03;;;20.50;1.00;;;;;;5059816;28;20216;-83
2023/06/17 04:58:52;;;;;;;74.43;10.07;;;20.70;1.00;;;;;;5058118;28;20466;-83
2023/06/17 05:01:18;;;;;;;76.27;10.50;;;20.90;1.00;;;;;;5057536;28;20758;-83
2023/06/17 05:03:43;;;;;;;76.20;10.43;;;21.00;1.00;;;;;;5057721;28;20167;-83
2023/06/17 05:06:09;;;;;;;76.70;10.00;;;21.10;1.00;;;;;;5057561;28;20164;-83
2023/06/17 05:08:35;;;;;;;73.77;9.30;;;21.20;1.00;;;;;;5057102;28;20241;-83
2023/06/17 05:11:00;;;;;;;73.57;9.87;;;21.20;1.00;;;;;;5056946;28;20167;-84
2023/06/17 05:13:26;;;;;;;76.53;9.83;;;21.10;1.00;;;;;;5057630;28;20172;-83
2023/06/17 05:15:52;;;;;;;74.90;9.60;;;20.90;1.00;;;;;;5060172;28;20161;-84
2023/06/17 05:18:17;;;;;;;76.57;8.93;;;20.80;1.00;;;;;;5065498;28;20212;-84
2023/06/17 05:20:43;;;;;;;73.20;9.37;;;20.60;1.00;;;;;;5067684;28;20169;-85
2023/06/17 05:23:09;;;;;;;74.47;8.60;;;20.50;1.00;;;;;;5068682;28;20174;-84
2023/06/17 05:25:34;;;;;;;76.40;10.20;;;20.40;1.00;;;;;;5067110;28;20192;-84
2023/06/17 05:28:00;;;;;;;75.37;9.03;;;20.40;1.00;;;;;;5067524;28;20236;-84
2023/06/17 05:30:26;;;;;;;72.60;8.07;;;20.40;1.00;;;;;;5050684;28;20193;-84
2023/06/17 05:32:51;;;;;;;79.20;9.13;;;20.30;1.00;;;;;;5069212;28;20241;-84
2023/06/17 05:35:17;;;;;;;74.50;8.00;;;20.20;1.00;;;;;;5069104;28;20170;-84
2023/06/17 05:40:15;;;;;;;77.07;9.80;;;20.20;1.00;;;;;;5383863;22;20230;-85
2023/06/17 05:42:40;;;;;;;74.93;8.53;;;20.10;1.00;;;;;;5070595;28;20411;-84
2023/06/17 05:45:07;;;;;;;73.90;10.10;;;20.00;1.00;;;;;;5088770;28;20460;-84
2023/06/17 05:47:32;;;;;;;79.90;10.00;;;20.00;1.00;;;;;;5088284;28;20180;-84
2023/06/17 05:49:58;;;;;;;72.63;8.27;;;20.00;1.00;;;;;;5088601;28;20399;-83
2023/06/17 05:52:24;;;;;;;73.77;8.93;;;20.00;1.00;;;;;;5087798;28;20181;-83
2023/06/17 05:54:49;;;;;;;75.70;9.43;;;19.90;1.00;;;;;;5070917;28;20177;-83
2023/06/17 05:57:15;;;;;;;74.07;8.90;;;20.00;1.00;;;;;;5088592;28;20194;-84
2023/06/17 05:59:44;;;;;;;77.20;9.40;;;20.00;1.00;;;;;;5087130;28;20191;-83
2023/06/17 06:02:10;;;;;;;76.57;9.83;;;19.90;1.00;;;;;;5067257;28;20198;-82
2023/06/17 06:04:36;;;;;;;77.87;9.40;;;19.80;1.00;;;;;;5080721;28;20399;-82
2023/06/17 06:07:02;;;;;;;74.57;9.53;;;19.90;1.00;;;;;;5079775;28;20180;-83
2023/06/17 06:09:27;;;;;;;74.27;9.90;;;19.90;1.00;;;;;;5063613;28;20173;-83
2023/06/17 06:11:53;;;;;;;76.20;10.67;;;19.90;1.00;;;;;;5062505;28;20165;-83
2023/06/17 06:14:19;;;;;;;78.47;10.60;;;19.90;1.00;;;;;;5078078;28;20715;-80
2023/06/17 06:16:44;;;;;;;73.40;9.43;;;19.90;1.00;;;;;;5074288;28;20601;-80
2023/06/17 06:19:10;;;;;;;75.27;9.00;;;20.00;1.00;;;;;;5074304;28;20270;-80
2023/06/17 06:21:35;;;;;;;78.30;10.20;;;20.00;1.00;;;;;;5076666;28;20224;-83
2023/06/17 06:24:01;;;;;;;74.40;10.83;;;20.00;1.00;;;;;;5079395;28;20170;-82
2023/06/17 06:26:27;;;;;;;83.53;11.43;;;20.10;1.00;;;;;;5080010;28;20176;-83
2023/06/17 06:28:53;;;;;;;85.30;10.80;;;20.20;1.00;;;;;;5085342;28;20220;-83
2023/06/17 06:31:19;;;;;;;75.93;9.30;;;20.20;1.00;;;;;;5084082;28;20260;-83
2023/06/17 06:33:45;;;;;;;75.73;10.07;;;20.20;1.00;;;;;;5083971;28;20442;-83
2023/06/17 06:36:11;;;;;;;74.83;9.00;;;20.20;1.00;;;;;;5084724;28;20228;-83
2023/06/17 06:38:36;;;;;;;73.80;9.17;;;20.20;1.00;;;;;;5066103;28;20259;-83
2023/06/17 06:41:02;;;;;;;76.10;10.17;;;20.20;1.00;;;;;;5065380;28;20860;-83
2023/06/17 06:43:28;;;;;;;76.37;10.77;;;20.10;1.00;;;;;;5065860;28;20167;-83
2023/06/17 06:45:53;;;;;;;74.97;10.03;;;20.10;1.00;;;;;;5065554;28;20184;-83
2023/06/17 06:48:20;;;;;;;78.80;11.40;;;20.20;1.00;;;;;;5087823;28;20195;-83
2023/06/17 06:50:46;;;;;;;83.40;12.87;;;20.20;1.00;;;;;;5089822;28;20180;-83
2023/06/17 06:53:11;;;;;;;77.30;10.57;;;20.20;1.00;;;;;;5090695;28;20403;-83
2023/06/17 06:55:37;;;;;;;76.17;12.90;;;20.20;1.00;;;;;;5071967;28;20260;-83
2023/06/17 06:58:03;;;;;;;75.47;11.80;;;20.30;1.00;;;;;;5091097;28;20192;-83
2023/06/17 07:00:31;;;;;;;80.90;12.93;;;20.30;1.00;;;;;;5089507;28;20252;-85
2023/06/17 07:03:44;;;;;;;74.57;10.57;;;20.50;1.00;;;;;;5071847;28;20175;-85
2023/06/17 07:06:09;;;;;;;74.80;9.97;;;20.50;1.00;;;;;;5089523;28;20507;-83
2023/06/17 07:08:35;;;;;;;79.17;11.43;;;20.60;1.00;;;;;;5088697;28;20504;-83
2023/06/17 07:11:00;;;;;;;79.50;11.80;;;20.50;1.00;;;;;;5089364;28;20158;-83
2023/06/17 07:13:26;;;;;;;76.10;12.13;;;20.60;1.00;;;;;;5090044;28;20167;-83
2023/06/17 07:15:52;;;;;;;76.67;12.50;;;20.60;1.00;;;;;;5072621;28;20219;-83
2023/06/17 07:18:18;;;;;;;76.67;11.00;;;20.70;1.00;;;;;;5089737;28;20446;-83
2023/06/17 07:20:44;;;;;;;79.50;12.00;;;20.80;1.00;;;;;;5072006;28;20176;-83
2023/06/17 07:23:10;;;;;;;74.67;10.57;;;20.90;1.00;;;;;;5089266;28;20433;-83
2023/06/17 07:25:36;;;;;;;78.70;12.43;;;20.90;1.00;;;;;;5088740;28;20154;-83
2023/06/17 07:28:03;;;;;;;76.87;12.57;;;21.00;1.00;;;;;;5088041;28;20270;-83
2023/06/17 07:30:29;;;;;;;76.43;10.87;;;21.00;1.00;;;;;;5088508;28;20817;-83
2023/06/17 07:32:55;;;;;;;76.40;11.77;;;21.10;1.00;;;;;;5069467;28;20403;-83
2023/06/17 07:35:21;;;;;;;77.90;12.60;;;21.20;1.00;;;;;;5070424;28;20410;-83
2023/06/17 07:37:47;;;;;;;83.27;12.57;;;21.30;1.00;;;;;;5089380;28;20433;-83
2023/06/17 07:40:13;;;;;;;79.50;12.97;;;21.30;1.00;;;;;;5089248;28;20188;-83
2023/06/17 07:42:45;;;;;;;77.10;13.20;;;21.40;1.00;;;;;;5071936;28;20166;-85
2023/06/17 07:45:11;;;;;;;80.03;14.80;;;21.40;1.00;;;;;;5088141;28;20928;-83
2023/06/17 07:47:37;;;;;;;81.13;15.67;;;21.40;1.00;;;;;;5088919;28;20423;-83
2023/06/17 07:50:08;;;;;;;81.87;13.07;;;21.50;1.00;;;;;;5089168;28;20759;-83
2023/06/17 07:52:35;;;;;;;86.83;15.70;;;21.60;1.00;;;;;;5070944;28;20402;-83
2023/06/17 07:55:04;;;;;;;79.57;13.37;;;21.60;1.00;;;;;;5089311;28;20727;-83
2023/06/17 07:57:30;;;;;;;80.40;19.03;;;21.70;1.00;;;;;;5071501;28;20433;-83
2023/06/17 07:59:56;;;;;;;77.43;17.50;;;21.70;1.00;;;;;;5088844;28;20520;-83
2023/06/17 08:02:22;;;;;;;80.47;17.17;;;21.80;1.00;;;;;;5071192;28;20544;-82
2023/06/17 08:04:48;;;;;;;80.13;17.83;;;21.90;1.00;;;;;;5081295;28;20428;-82
2023/06/17 08:07:14;;;;;;;83.10;16.60;;;22.00;1.00;;;;;;5080255;28;20208;-82
2023/06/17 08:09:40;;;;;;;78.43;15.77;;;22.00;1.00;;;;;;5064230;28;20410;-82
2023/06/17 08:12:06;;;;;;;80.87;16.30;;;22.10;1.00;;;;;;5082749;28;20421;-82
2023/06/17 08:14:31;;;;;;;77.30;19.50;;;22.20;1.00;;;;;;5072508;28;20172;-83
2023/06/17 08:16:57;;;;;;;80.00;18.77;;;22.40;1.00;;;;;;5067419;28;20445;-83
2023/06/17 08:19:23;;;;;;;79.40;15.07;;;22.40;1.00;;;;;;5093609;28;20219;-84
2023/06/17 08:21:49;;;;;;;77.90;13.83;;;22.50;1.00;;;;;;5091275;28;20171;-84
2023/06/17 08:24:21;;;;;;;78.80;13.70;;;22.40;1.00;;;;;;5074673;28;20164;-84
2023/06/17 08:26:48;;;;;;;79.93;14.90;;;22.40;1.00;;;;;;5075068;28;20429;-84
2023/06/17 08:29:15;;;;;;;75.60;11.23;;;22.50;1.00;;;;;;5075168;28;20485;-84
2023/06/17 08:31:45;;;;;;;77.63;12.93;;;22.50;1.00;;;;;;5073735;28;20418;-84
2023/06/17 08:34:12;;;;;;;73.77;10.60;;;22.60;1.00;;;;;;5092067;28;20444;-84
2023/06/17 08:36:42;;;;;;;76.60;14.10;;;22.60;1.00;;;;;;5091607;28;20402;-84
2023/06/17 08:39:08;;;;;;;79.60;11.73;;;22.70;1.00;;;;;;5092463;28;20472;-84
2023/06/17 08:41:42;;;;;;;76.77;10.70;;;22.80;1.00;;;;;;5073587;28;20418;-84
2023/06/17 08:44:13;;;;;;;76.47;11.20;;;22.90;1.00;;;;;;5090225;28;20182;-84
2023/06/17 08:46:44;;;;;;;75.10;11.07;;;22.90;1.00;;;;;;5071937;28;20455;-84
2023/06/17 08:49:12;;;;;;;75.07;10.27;;;22.80;1.00;;;;;;5091447;28;20402;-84
2023/06/17 08:51:39;;;;;;;74.40;7.87;;;22.90;1.00;;;;;;5072759;28;20482;-84
2023/06/17 08:54:06;;;;;;;75.90;9.37;;;22.90;1.00;;;;;;5089954;28;20402;-84
2023/06/17 08:56:32;;;;;;;76.20;9.63;;;23.00;1.00;;;;;;5073419;28;20414;-84
2023/06/17 08:58:57;;;;;;;76.70;9.67;;;23.10;1.00;;;;;;5089931;28;21006;-84
2023/06/17 09:01:25;;;;;;;73.17;8.57;;;23.10;1.00;;;;;;5090633;28;20438;-84
2023/06/17 09:03:52;;;;;;;71.83;7.43;;;23.10;1.00;;;;;;5087592;28;20560;-84
2023/06/17 09:06:23;;;;;;;75.43;9.77;;;23.20;1.00;;;;;;5062753;28;20513;-84
2023/06/17 09:08:50;;;;;;;77.10;9.57;;;23.30;1.00;;;;;;5061269;28;20521;-84
2023/06/17 09:11:17;;;;;;;73.47;9.57;;;23.30;1.00;;;;;;5079513;28;20407;-84
2023/06/17 09:13:50;;;;;;;82.40;10.10;;;23.30;1.00;;;;;;5062286;28;20824;-84
2023/06/17 09:16:17;;;;;;;76.90;11.47;;;23.40;1.00;;;;;;5079227;28;20398;-84
2023/06/17 09:18:43;;;;;;;74.23;9.93;;;23.50;1.00;;;;;;5080183;28;20461;-83
2023/06/17 09:21:08;;;;;;;73.97;9.07;;;23.60;1.00;;;;;;5080688;28;20410;-84
2023/06/17 09:23:34;;;;;;;76.30;9.63;;;23.60;1.00;;;;;;5080129;28;20179;-83
2023/06/17 09:26:04;;;;;;;74.37;9.17;;;23.80;1.00;;;;;;5061221;28;20254;-83
2023/06/17 09:28:33;;;;;;;80.23;8.90;;;24.00;1.00;;;;;;5079984;28;20188;-84
2023/06/17 09:31:03;;;;;;;75.50;9.47;;;24.00;1.00;;;;;;5079956;28;20492;-83
2023/06/17 09:33:29;;;;;;;75.50;7.90;;;24.10;1.00;;;;;;5061667;28;20502;-83
2023/06/17 09:36:06;;;;;;;75.87;8.50;;;24.20;1.00;;;;;;5078546;28;20435;-83
2023/06/17 09:38:31;;;;;;;74.57;7.23;;;24.30;1.00;;;;;;5060639;28;20195;-83
2023/06/17 09:40:58;;;;;;;76.37;7.77;;;24.50;1.00;;;;;;5078669;28;20478;-83
2023/06/17 09:43:27;;;;;;;72.07;6.73;;;24.70;1.00;;;;;;5079228;28;20864;-83
2023/06/17 09:45:59;;;;;;;79.40;6.70;;;25.00;1.00;;;;;;5079264;28;20399;-83
2023/06/17 09:48:30;;;;;;;72.30;5.87;;;25.10;1.00;;;;;;5080914;28;20428;-83
2023/06/17 09:50:56;;;;;;;72.83;6.00;;;25.20;1.00;;;;;;5076432;28;20407;-84
2023/06/17 09:53:29;;;;;;;72.87;6.43;;;25.40;1.00;;;;;;5074238;28;20403;-84
2023/06/17 09:55:57;;;;;;;71.77;6.03;;;25.60;1.00;;;;;;5091815;28;20425;-84
2023/06/17 09:58:32;;;;;;;72.27;6.40;;;25.60;1.00;;;;;;5090777;28;20428;-84
2023/06/17 10:03:29;;;;;;;76.37;6.87;;;25.70;1.00;;;;;;5060225;28;20447;-82
2023/06/17 10:06:12;;;;;;;78.70;8.13;;;25.90;1.00;;;;;;5062969;28;20896;-83
2023/06/17 10:08:48;;;;;;;72.87;7.57;;;26.00;1.00;;;;;;5063620;28;20195;-83
2023/06/17 10:11:18;;;;;;;72.90;6.40;;;26.20;1.00;;;;;;5043420;28;20976;-83
2023/06/17 10:14:42;;;;;;;75.57;7.13;;;26.30;1.00;;;;;;5061283;28;20408;-82
2023/06/17 10:17:09;;;;;;;74.07;7.60;;;26.40;1.00;;;;;;4946744;29;20424;-83
2023/06/17 10:19:38;;;;;;;74.77;7.50;;;26.50;1.00;;;;;;4962665;29;20542;-82
2023/06/17 10:22:11;;;;;;;73.07;7.13;;;26.50;1.00;;;;;;5004692;28;20448;-83
2023/06/17 10:24:37;;;;;;;71.90;7.43;;;26.70;1.00;;;;;;5046167;28;20411;-83
2023/06/17 10:27:05;;;;;;;72.57;7.50;;;26.90;1.00;;;;;;5063230;28;20458;-83
2023/06/17 10:29:32;;;;;;;74.37;7.50;;;27.10;1.00;;;;;;5062847;28;20415;-82
2023/06/17 10:32:19;;;;;;;74.40;8.50;;;27.40;1.00;;;;;;5045245;28;20447;-82
2023/06/17 10:35:08;;;;;;;73.33;7.10;;;27.60;1.00;;;;;;5062078;28;20390;-82
2023/06/17 10:37:46;;;;;;;70.87;6.13;;;27.70;1.00;;;;;;5062345;28;20427;-82
2023/06/17 10:40:18;;;;;;;71.50;5.53;;;27.60;1.00;;;;;;5044131;28;20449;-83
2023/06/17 10:42:57;;;;;;;71.87;4.60;;;27.60;1.00;;;;;;5062209;28;20403;-83
2023/06/17 10:45:24;;;;;;;73.07;6.07;;;27.70;1.00;;;;;;5045957;28;20459;-82
2023/06/17 10:47:49;;;;;;;70.30;5.40;;;27.80;1.00;;;;;;5047662;28;20562;-83
2023/06/17 10:50:19;;;;;;;75.03;5.60;;;27.90;1.00;;;;;;5067682;28;20415;-84
2023/06/17 10:52:45;;;;;;;74.37;5.00;;;27.70;1.00;;;;;;5068624;28;20168;-84
2023/06/17 10:55:13;;;;;;;72.50;6.07;;;27.70;1.00;;;;;;5067894;28;20806;-83
2023/06/17 10:57:40;;;;;;;73.37;5.00;;;28.00;1.00;;;;;;5067804;28;20795;-84
2023/06/17 11:00:08;;;;;;;73.83;5.70;;;28.20;1.00;;;;;;5049826;28;20487;-84
2023/06/17 11:02:37;;;;;;;71.20;5.03;;;28.30;1.00;;;;;;5049459;28;20857;-83
2023/06/17 11:05:03;;;;;;;69.77;4.50;;;28.50;1.00;;;;;;5067825;28;20407;-84
2023/06/17 11:07:28;;;;;;;73.60;5.40;;;28.80;1.00;;;;;;5067471;28;20427;-84
2023/06/17 11:09:54;;;;;;;71.17;5.40;;;28.90;1.00;;;;;;5049004;28;20414;-84
2023/06/17 11:12:20;;;;;;;73.00;5.50;;;29.10;1.00;;;;;;5067589;28;20168;-84
2023/06/17 11:14:45;;;;;;;72.73;5.23;;;29.20;1.00;;;;;;5066700;28;20180;-83
2023/06/17 11:17:11;;;;;;;76.47;5.17;;;29.30;1.00;;;;;;5049834;28;20193;-84
2023/06/17 11:19:37;;;;;;;71.37;4.70;;;29.30;1.00;;;;;;5049368;28;20263;-83
2023/06/17 11:22:07;;;;;;;71.47;5.47;;;28.80;1.00;;;;;;5049611;28;20173;-83
2023/06/17 11:24:33;;;;;;;71.43;4.70;;;28.90;1.00;;;;;;5067691;28;20259;-83
2023/06/17 11:27:00;;;;;;;72.53;4.97;;;29.30;1.00;;;;;;5066582;28;20423;-84
2023/06/17 11:29:27;;;;;;;74.43;5.90;;;29.50;1.00;;;;;;5067177;28;20411;-83
2023/06/17 11:32:00;;;;;;;73.23;5.00;;;29.60;1.00;;;;;;5049968;28;20438;-83
2023/06/17 11:34:31;;;;;;;71.27;5.33;;;29.70;1.00;;;;;;5067860;28;20470;-84
2023/06/17 11:36:58;;;;;;;72.10;5.30;;;29.80;1.00;;;;;;5049835;28;20450;-84
2023/06/17 11:39:26;;;;;;;72.37;5.20;;;29.90;1.00;;;;;;5049134;28;20459;-84
2023/06/17 11:41:52;;;;;;;72.97;7.00;;;29.90;1.00;;;;;;5049433;28;20423;-84
2023/06/17 11:44:19;;;;;;;72.07;6.63;;;29.90;1.00;;;;;;5050090;28;20431;-84
2023/06/17 11:46:49;;;;;;;72.00;7.00;;;29.80;1.00;;;;;;5067317;28;20472;-84
2023/06/17 11:49:15;;;;;;;72.17;7.27;;;29.80;1.00;;;;;;5066685;28;20399;-84
2023/06/17 11:51:48;;;;;;;71.77;7.00;;;29.70;1.00;;;;;;5066675;28;20407;-84
2023/06/17 11:54:14;;;;;;;72.60;6.70;;;29.80;1.00;;;;;;5049294;28;20192;-84
2023/06/17 11:56:40;;;;;;;72.60;8.50;;;29.90;1.00;;;;;;5048816;28;20477;-84
2023/06/17 11:59:06;;;;;;;72.37;7.17;;;29.60;1.00;;;;;;5048276;28;20522;-84
2023/06/17 12:01:32;;;;;;;72.93;7.53;;;29.40;1.00;;;;;;5066738;28;20419;-84
2023/06/17 12:03:58;;;;;;;72.47;7.77;;;29.40;1.00;;;;;;5048720;28;20403;-84
2023/06/17 12:06:24;;;;;;;71.47;6.80;;;29.60;1.00;;;;;;5044432;28;20255;-84
2023/06/17 12:09:03;;;;;;;72.20;7.37;;;29.80;1.00;;;;;;5043408;28;20215;-84
2023/06/17 12:11:31;;;;;;;72.87;7.60;;;29.70;1.00;;;;;;5045592;28;20403;-84
2023/06/17 12:13:57;;;;;;;73.07;6.70;;;29.80;1.00;;;;;;5062663;28;20984;-83
2023/06/17 12:16:35;;;;;;;73.50;6.50;;;30.00;1.00;;;;;;5046571;28;20411;-83
2023/06/17 12:19:06;;;;;;;72.23;6.20;;;29.90;1.00;;;;;;5063675;28;20451;-83
2023/06/17 12:21:32;;;;;;;72.60;7.03;;;29.80;1.00;;;;;;5049218;28;20419;-83
2023/06/17 12:23:58;;;;;;;72.33;7.37;;;30.00;1.00;;;;;;5048916;28;20403;-83
2023/06/17 12:26:27;;;;;;;73.60;6.77;;;30.30;1.00;;;;;;5048479;28;20411;-83
2023/06/17 12:28:54;;;;;;;70.93;6.70;;;30.30;1.00;;;;;;5067025;28;20425;-83
2023/06/17 12:31:22;;;;;;;72.60;7.20;;;30.30;1.00;;;;;;5047376;28;20418;-83
2023/06/17 12:33:48;;;;;;;72.47;7.60;;;30.50;1.00;;;;;;5065684;28;20411;-83
2023/06/17 12:36:15;;;;;;;79.10;6.60;;;30.30;1.00;;;;;;5047682;28;20964;-83
2023/06/17 12:38:41;;;;;;;72.40;6.03;;;30.10;1.00;;;;;;5047952;28;20439;-83
2023/06/17 12:41:07;;;;;;;73.67;6.07;;;30.00;1.00;;;;;;5065948;28;20403;-83
2023/06/17 12:43:36;;;;;;;71.27;5.80;;;30.10;1.00;;;;;;5066827;28;20157;-83
2023/06/17 12:46:02;;;;;;;71.17;5.13;;;30.10;1.00;;;;;;5048482;28;20232;-83
2023/06/17 12:48:29;;;;;;;70.23;4.80;;;30.20;1.00;;;;;;5065327;28;20839;-83
2023/06/17 12:50:55;;;;;;;71.47;4.77;;;30.30;1.00;;;;;;5065968;28;20161;-83